Chadwick Bay, New York
Current Conditions -  °F | °C
As of 4:53 PM on Friday 28 Nov 2014 (Local Time) from KDKK Reporting Station
Light Snow Light Snow  
Wind Chill: 18°   Ceiling: 3200
Heat Index: 26°   Visibility: 9mi
Dew Point: 17°   Wind: 8mph
Humidity: 69%   Direction: 200°SSW
Pressure: 30.22"   Gusts: 24mph
Location:  42.4788°N, 79.3113°W
Report Text: KDKK 282153Z AUTO 20007G21KT 9SM -SN OVC032 M03/M08 A3022 RMK AO2 SNB35 SLP243 P0000 T10331083
Loading
Personal Weather Stations






























Interactive Weather Map New forecast layout! Learn more

10-Day Weather Forecast

Advertisements
Track Severe Weather on mobile